Conesville, Iowa
Current Conditions -  °F | °C
As of 6:35 AM on Friday 24 Oct 2014 (Local Time) from KMUT Reporting Station
Moderate Fog Moderate Fog  
Wind Chill: 10°   Ceiling: 200
Heat Index: 10°   Visibility: 0mi
Dew Point:   Wind: 3mph
Humidity: 94%   Direction: 210°SSW
Pressure: 30.06"   Gusts: NA
Location:  41.38°N, 91.35°W
Report Text: KMUT 241135Z AUTO 21003KT M1/4SM FG OVC002 10/09 A3006 RMK AO2
Loading
Personal Weather Stations






























Interactive Weather Map
Tropical Storm Tracking
New forecast layout! Learn more

10-Day Weather Forecast

Advertisements
Track Severe Weather on mobile